Time;durP1;ratioP1;P1;durP2;ratioP2;P2;SDS_P1;SDS_P2;PMS_P1;PMS_P2;Temp;Humidity;BMP_temperature;BMP_pressure;BME280_temperature;BME280_humidity;BME280_pressure;Samples;Min_cycle;Max_cycle;Signal;HPM_P1;HPM_P2
2022/04/23 00:01:54;;;;;;;21.45;14.75;;;;;;;;;;4981701;28;20486;-70
2022/04/23 00:04:20;;;;;;;19.80;14.05;;;;;;;;;;4981537;28;20439;-70
2022/04/23 00:06:45;;;;;;;22.20;15.30;;;;;;;;;;4981496;28;20049;-69
2022/04/23 00:09:11;;;;;;;22.13;14.93;;;;;;;;;;4980926;28;20047;-69
2022/04/23 00:11:37;;;;;;;20.73;13.90;;;;;;;;;;4981497;28;20048;-69
2022/04/23 00:14:04;;;;;;;22.48;15.32;;;;;;;;;;4981303;28;20038;-70
2022/04/23 00:16:30;;;;;;;20.73;15.10;;;;;;;;;;4981921;28;20220;-69
2022/04/23 00:18:56;;;;;;;21.23;14.90;;;;;;;;;;4980237;28;20539;-70
2022/04/23 00:21:21;;;;;;;20.77;15.10;;;;;;;;;;4981490;28;20045;-69
2022/04/23 00:23:48;;;;;;;25.83;15.10;;;;;;;;;;4980955;28;20125;-70
2022/04/23 00:26:14;;;;;;;22.35;15.68;;;;;;;;;;4981544;28;20042;-69
2022/04/23 00:28:39;;;;;;;21.15;13.75;;;;;;;;;;4981471;28;20050;-70
2022/04/23 00:31:05;;;;;;;21.65;14.27;;;;;;;;;;4980492;28;20034;-69
2022/04/23 00:33:38;;;;;;;22.55;15.65;;;;;;;;;;4981118;28;20113;-69
2022/04/23 00:36:09;;;;;;;21.95;15.35;;;;;;;;;;4981588;28;20088;-70
2022/04/23 00:38:37;;;;;;;22.90;16.17;;;;;;;;;;4981422;28;20048;-69
2022/04/23 00:41:03;;;;;;;22.00;14.48;;;;;;;;;;4980582;28;20038;-70
2022/04/23 00:43:30;;;;;;;22.45;15.43;;;;;;;;;;4980531;28;20089;-70
2022/04/23 00:45:57;;;;;;;23.77;15.90;;;;;;;;;;4980909;28;20094;-69
2022/04/23 00:48:24;;;;;;;23.70;15.32;;;;;;;;;;4981370;28;20415;-69
2022/04/23 00:50:56;;;;;;;21.48;14.88;;;;;;;;;;4981039;28;20049;-70
2022/04/23 00:53:23;;;;;;;22.90;15.40;;;;;;;;;;4971104;28;20121;-69
2022/04/23 00:55:48;;;;;;;21.17;14.80;;;;;;;;;;4980841;28;20043;-69
2022/04/23 00:58:16;;;;;;;24.08;16.33;;;;;;;;;;4981474;28;20049;-68
2022/04/23 01:00:42;;;;;;;20.88;13.75;;;;;;;;;;4980189;28;20069;-70
2022/04/23 01:03:07;;;;;;;23.30;15.43;;;;;;;;;;4979709;28;20038;-70
2022/04/23 01:05:33;;;;;;;24.35;15.82;;;;;;;;;;4981098;28;20088;-70
2022/04/23 01:08:04;;;;;;;24.40;15.35;;;;;;;;;;4980360;28;20165;-70
2022/04/23 01:10:30;;;;;;;24.70;15.32;;;;;;;;;;4980896;28;20057;-70
2022/04/23 01:12:55;;;;;;;22.40;13.63;;;;;;;;;;4980995;28;20043;-70
2022/04/23 01:15:23;;;;;;;22.30;14.93;;;;;;;;;;4979484;28;20030;-70
2022/04/23 01:17:49;;;;;;;23.60;13.90;;;;;;;;;;4980317;28;20089;-70
2022/04/23 01:20:15;;;;;;;23.00;15.65;;;;;;;;;;4981264;28;20056;-70
2022/04/23 01:22:44;;;;;;;30.98;15.48;;;;;;;;;;4980460;28;20138;-70
2022/04/23 01:25:13;;;;;;;20.80;14.15;;;;;;;;;;4979468;28;20129;-70
2022/04/23 01:27:40;;;;;;;25.02;15.30;;;;;;;;;;4980587;28;20049;-70
2022/04/23 01:30:07;;;;;;;23.88;14.88;;;;;;;;;;4980888;28;20033;-70
2022/04/23 01:32:33;;;;;;;21.05;13.80;;;;;;;;;;4980226;28;20040;-70
2022/04/23 01:34:58;;;;;;;19.70;12.75;;;;;;;;;;4980071;28;20034;-70
2022/04/23 01:37:24;;;;;;;20.88;13.93;;;;;;;;;;4979434;28;20410;-70
2022/04/23 01:39:50;;;;;;;21.83;14.20;;;;;;;;;;4980579;28;20061;-70
2022/04/23 01:42:17;;;;;;;21.55;15.45;;;;;;;;;;4980153;28;20030;-70
2022/04/23 01:44:52;;;;;;;24.52;15.48;;;;;;;;;;4979687;28;20193;-70
2022/04/23 01:47:18;;;;;;;22.60;13.82;;;;;;;;;;4979425;28;20414;-70
2022/04/23 01:49:44;;;;;;;19.23;12.80;;;;;;;;;;4977109;28;20383;-70
2022/04/23 01:52:10;;;;;;;20.88;14.27;;;;;;;;;;4978117;28;20124;-70
2022/04/23 01:54:36;;;;;;;22.92;14.10;;;;;;;;;;4979124;28;20644;-70
2022/04/23 01:57:02;;;;;;;20.75;14.75;;;;;;;;;;4980253;28;20034;-70
2022/04/23 01:59:27;;;;;;;21.20;14.23;;;;;;;;;;4979687;28;20406;-70
2022/04/23 02:01:53;;;;;;;21.23;13.95;;;;;;;;;;4979561;28;20046;-70
2022/04/23 02:04:19;;;;;;;20.13;14.02;;;;;;;;;;4979732;28;20050;-70
2022/04/23 02:06:45;;;;;;;20.33;14.27;;;;;;;;;;4979976;28;20034;-69
2022/04/23 02:09:12;;;;;;;20.02;14.32;;;;;;;;;;4979623;28;20043;-69
2022/04/23 02:11:37;;;;;;;26.13;16.05;;;;;;;;;;4981109;28;20038;-69
2022/04/23 02:14:03;;;;;;;26.88;17.48;;;;;;;;;;4983662;28;20042;-69
2022/04/23 02:16:29;;;;;;;23.95;15.60;;;;;;;;;;4984064;28;20046;-69
2022/04/23 02:18:57;;;;;;;24.83;16.30;;;;;;;;;;4966225;28;20072;-70
2022/04/23 02:21:26;;;;;;;24.20;14.75;;;;;;;;;;4983246;28;20141;-69
2022/04/23 02:23:53;;;;;;;24.60;15.45;;;;;;;;;;4983457;28;20534;-69
2022/04/23 02:26:20;;;;;;;23.83;15.80;;;;;;;;;;4983754;28;20121;-69
2022/04/23 02:28:47;;;;;;;24.48;15.13;;;;;;;;;;4966231;28;20298;-69
2022/04/23 02:31:12;;;;;;;27.52;15.90;;;;;;;;;;4982839;28;20105;-70
2022/04/23 02:33:38;;;;;;;20.83;13.82;;;;;;;;;;4982936;28;20490;-69
2022/04/23 02:36:06;;;;;;;24.92;14.13;;;;;;;;;;4966338;28;20538;-69
2022/04/23 02:38:32;;;;;;;22.88;14.68;;;;;;;;;;4984039;28;20053;-69
2022/04/23 02:40:58;;;;;;;24.75;15.95;;;;;;;;;;4983248;28;20041;-70
2022/04/23 02:43:23;;;;;;;20.75;13.48;;;;;;;;;;4982215;28;20042;-70
2022/04/23 02:45:49;;;;;;;22.45;15.25;;;;;;;;;;4983017;28;20042;-70
2022/04/23 02:48:14;;;;;;;26.15;16.00;;;;;;;;;;4983493;28;20042;-70
2022/04/23 02:50:40;;;;;;;26.60;15.68;;;;;;;;;;4979472;28;20073;-70
2022/04/23 02:53:06;;;;;;;22.45;13.57;;;;;;;;;;4982684;28;20038;-69
2022/04/23 02:55:33;;;;;;;24.27;15.80;;;;;;;;;;4982945;28;21021;-69
2022/04/23 02:58:09;;;;;;;31.30;16.58;;;;;;;;;;4982861;28;20033;-69
2022/04/23 03:00:37;;;;;;;25.88;15.52;;;;;;;;;;4982991;28;20038;-69
2022/04/23 03:03:03;;;;;;;23.67;14.20;;;;;;;;;;4983199;28;20037;-69
2022/04/23 03:05:30;;;;;;;20.90;13.82;;;;;;;;;;4981856;28;20049;-69
2022/04/23 03:07:55;;;;;;;26.05;15.75;;;;;;;;;;4982559;28;20046;-69
2022/04/23 03:10:21;;;;;;;23.15;14.23;;;;;;;;;;4983145;28;20046;-69
2022/04/23 03:12:46;;;;;;;25.38;15.18;;;;;;;;;;4983123;28;20068;-69
2022/04/23 03:15:14;;;;;;;26.63;16.10;;;;;;;;;;4980994;28;20072;-69
2022/04/23 03:17:40;;;;;;;24.42;16.05;;;;;;;;;;4982537;28;20042;-69
2022/04/23 03:20:08;;;;;;;27.35;16.90;;;;;;;;;;4982849;28;20038;-69
2022/04/23 03:22:33;;;;;;;28.23;16.83;;;;;;;;;;4982582;28;20491;-69
2022/04/23 03:24:59;;;;;;;26.92;15.98;;;;;;;;;;4982072;28;20042;-69
2022/04/23 03:27:24;;;;;;;25.85;16.45;;;;;;;;;;4981895;28;20034;-69
2022/04/23 03:29:50;;;;;;;25.05;15.52;;;;;;;;;;4982596;28;20041;-69
2022/04/23 03:32:15;;;;;;;21.63;13.57;;;;;;;;;;4982507;28;20034;-69
2022/04/23 03:34:41;;;;;;;24.55;15.63;;;;;;;;;;4981743;28;20103;-69
2022/04/23 03:37:06;;;;;;;28.15;17.27;;;;;;;;;;4982063;28;20093;-69
2022/04/23 03:39:32;;;;;;;29.25;17.83;;;;;;;;;;4982952;28;21094;-70
2022/04/23 03:41:58;;;;;;;29.98;16.73;;;;;;;;;;4982538;28;20101;-69
2022/04/23 03:44:23;;;;;;;29.23;16.40;;;;;;;;;;4981572;28;20038;-69
2022/04/23 03:46:49;;;;;;;25.23;15.68;;;;;;;;;;4982221;28;20576;-69
2022/04/23 03:49:14;;;;;;;26.48;16.23;;;;;;;;;;4981057;28;20035;-69
2022/04/23 03:51:41;;;;;;;25.95;15.50;;;;;;;;;;4978290;28;20042;-69
2022/04/23 03:54:07;;;;;;;29.75;17.02;;;;;;;;;;4980727;28;20077;-69
2022/04/23 03:56:32;;;;;;;26.83;15.95;;;;;;;;;;4982285;28;20081;-69
2022/04/23 03:58:58;;;;;;;22.63;14.65;;;;;;;;;;4980694;28;20065;-70
2022/04/23 04:01:23;;;;;;;24.40;14.73;;;;;;;;;;4981754;28;20153;-70
2022/04/23 04:03:49;;;;;;;25.10;14.45;;;;;;;;;;4978593;28;20034;-69
2022/04/23 04:06:14;;;;;;;27.77;15.95;;;;;;;;;;4981834;28;20030;-69
2022/04/23 04:08:40;;;;;;;23.58;13.57;;;;;;;;;;4981827;28;20116;-69
2022/04/23 04:11:05;;;;;;;23.15;14.55;;;;;;;;;;4981351;28;20053;-69
2022/04/23 04:13:30;;;;;;;24.00;13.77;;;;;;;;;;4981374;28;20049;-69
2022/04/23 04:15:56;;;;;;;25.13;14.68;;;;;;;;;;4981461;28;20038;-69
2022/04/23 04:18:22;;;;;;;21.80;13.02;;;;;;;;;;4981808;28;20065;-69
2022/04/23 04:20:49;;;;;;;23.38;14.38;;;;;;;;;;4980719;28;20104;-69
2022/04/23 04:23:15;;;;;;;28.42;15.15;;;;;;;;;;4981593;28;20471;-69
2022/04/23 04:25:41;;;;;;;22.35;13.45;;;;;;;;;;4980965;28;20141;-69
2022/04/23 04:28:07;;;;;;;20.98;12.55;;;;;;;;;;4981652;28;20113;-69
2022/04/23 04:31:47;;;;;;;25.77;15.45;;;;;;;;;;4980683;28;20400;-69
2022/04/23 04:33:18;;;;;;;25.13;13.57;;;;;;;;;;4980898;28;20110;-69
2022/04/23 04:35:43;;;;;;;24.40;13.45;;;;;;;;;;4980455;28;20440;-69
2022/04/23 04:38:09;;;;;;;27.33;13.98;;;;;;;;;;4978292;28;20045;-69
2022/04/23 04:40:34;;;;;;;27.48;15.27;;;;;;;;;;4981505;28;20035;-69
2022/04/23 04:43:00;;;;;;;26.13;15.15;;;;;;;;;;4980237;28;20120;-69
2022/04/23 04:45:25;;;;;;;22.70;13.05;;;;;;;;;;4980641;28;20042;-70
2022/04/23 04:47:50;;;;;;;24.10;13.98;;;;;;;;;;4978952;28;20138;-70
2022/04/23 04:50:17;;;;;;;27.48;13.55;;;;;;;;;;4981512;28;20041;-70
2022/04/23 04:52:43;;;;;;;27.20;14.57;;;;;;;;;;4980052;28;20038;-69
2022/04/23 04:55:09;;;;;;;27.42;13.65;;;;;;;;;;4980691;28;20048;-69
2022/04/23 04:57:35;;;;;;;26.60;14.30;;;;;;;;;;4979569;28;20064;-70
2022/04/23 05:00:00;;;;;;;26.25;14.13;;;;;;;;;;4980907;28;20849;-69
2022/04/23 05:02:26;;;;;;;32.78;15.98;;;;;;;;;;4981019;28;20113;-69
2022/04/23 05:04:51;;;;;;;31.90;15.35;;;;;;;;;;4970540;28;20121;-69
2022/04/23 05:07:16;;;;;;;32.00;14.95;;;;;;;;;;4980831;28;20177;-69
2022/04/23 05:09:42;;;;;;;33.55;16.83;;;;;;;;;;4980837;28;20045;-69
2022/04/23 05:12:08;;;;;;;33.15;15.80;;;;;;;;;;4980647;28;20031;-69
2022/04/23 05:14:33;;;;;;;34.10;15.35;;;;;;;;;;4975164;28;20535;-69
2022/04/23 05:16:58;;;;;;;29.98;15.15;;;;;;;;;;4977243;28;20407;-69
2022/04/23 05:19:24;;;;;;;33.10;15.60;;;;;;;;;;4980815;28;20034;-69
2022/04/23 05:21:50;;;;;;;26.10;12.90;;;;;;;;;;4978669;28;20553;-69
2022/04/23 05:24:15;;;;;;;29.38;14.60;;;;;;;;;;4978996;28;20133;-69
2022/04/23 05:26:41;;;;;;;27.75;14.70;;;;;;;;;;4979124;28;20422;-69
2022/04/23 05:29:06;;;;;;;26.60;12.93;;;;;;;;;;4980205;28;20407;-69
2022/04/23 05:31:32;;;;;;;26.00;13.52;;;;;;;;;;4980000;28;20034;-69
2022/04/23 05:33:57;;;;;;;26.30;11.98;;;;;;;;;;4979873;28;20836;-69
2022/04/23 05:36:22;;;;;;;30.63;14.48;;;;;;;;;;4980139;28;20130;-69
2022/04/23 05:38:48;;;;;;;27.17;13.30;;;;;;;;;;4980210;28;20034;-69
2022/04/23 05:41:13;;;;;;;31.23;15.73;;;;;;;;;;4980716;28;20049;-69
2022/04/23 05:43:39;;;;;;;29.45;13.25;;;;;;;;;;4979794;28;20038;-69
2022/04/23 05:46:04;;;;;;;26.70;14.43;;;;;;;;;;4982412;28;20034;-68
2022/04/23 05:48:30;;;;;;;33.15;16.38;;;;;;;;;;4983852;28;20661;-69
2022/04/23 05:50:55;;;;;;;28.27;15.10;;;;;;;;;;4984274;28;20569;-69
2022/04/23 05:53:21;;;;;;;26.35;10.82;;;;;;;;;;4984993;28;20092;-68
2022/04/23 05:55:46;;;;;;;33.40;14.75;;;;;;;;;;4984956;28;20038;-69
2022/04/23 05:58:11;;;;;;;30.63;14.55;;;;;;;;;;4979201;28;20041;-71
2022/04/23 06:00:37;;;;;;;28.92;14.43;;;;;;;;;;4978515;28;20132;-71
2022/04/23 06:03:02;;;;;;;28.95;14.55;;;;;;;;;;4983726;28;20721;-70
2022/04/23 06:05:27;;;;;;;31.48;15.85;;;;;;;;;;4984305;28;20057;-69
2022/04/23 06:07:53;;;;;;;31.00;15.27;;;;;;;;;;4984006;28;20049;-70
2022/04/23 06:10:19;;;;;;;35.20;17.15;;;;;;;;;;4983547;28;20471;-70
2022/04/23 06:12:44;;;;;;;27.13;13.45;;;;;;;;;;4984722;28;20045;-70
2022/04/23 06:15:10;;;;;;;33.80;14.85;;;;;;;;;;4983518;28;20045;-69
2022/04/23 06:17:35;;;;;;;33.85;16.48;;;;;;;;;;4985753;28;20045;-68
2022/04/23 06:20:01;;;;;;;34.40;17.20;;;;;;;;;;4981372;28;20096;-68
2022/04/23 06:22:26;;;;;;;33.55;16.52;;;;;;;;;;4983203;28;20061;-69
2022/04/23 06:24:52;;;;;;;36.08;17.05;;;;;;;;;;4983063;28;20205;-68
2022/04/23 06:27:18;;;;;;;38.08;16.73;;;;;;;;;;4977185;28;20080;-69
2022/04/23 06:29:43;;;;;;;40.78;17.83;;;;;;;;;;4981076;28;20038;-68
2022/04/23 06:32:09;;;;;;;35.72;17.90;;;;;;;;;;4979213;28;20164;-69
2022/04/23 06:34:37;;;;;;;26.35;13.23;;;;;;;;;;4980288;28;20129;-69
2022/04/23 06:37:03;;;;;;;39.60;16.92;;;;;;;;;;4979659;28;20261;-68
2022/04/23 06:39:29;;;;;;;39.53;17.77;;;;;;;;;;4980561;28;20384;-69
2022/04/23 06:41:54;;;;;;;37.30;17.70;;;;;;;;;;4946346;28;20034;-69
2022/04/23 06:44:20;;;;;;;35.00;19.27;;;;;;;;;;4981075;28;20506;-69
2022/04/23 06:46:45;;;;;;;42.55;17.85;;;;;;;;;;4982187;28;20475;-69
2022/04/23 06:49:11;;;;;;;36.33;16.92;;;;;;;;;;4982433;28;20025;-69
2022/04/23 06:51:37;;;;;;;32.60;17.13;;;;;;;;;;4982526;28;20499;-69
2022/04/23 06:54:03;;;;;;;29.30;15.45;;;;;;;;;;4980106;28;20549;-69
2022/04/23 06:56:30;;;;;;;28.73;15.95;;;;;;;;;;4981994;28;20766;-69
2022/04/23 06:58:55;;;;;;;32.38;16.55;;;;;;;;;;4980848;28;20034;-69
2022/04/23 07:01:22;;;;;;;29.73;15.82;;;;;;;;;;4981933;28;20030;-69
2022/04/23 07:03:47;;;;;;;25.80;13.20;;;;;;;;;;4981492;28;20141;-69
2022/04/23 07:06:13;;;;;;;29.92;15.45;;;;;;;;;;4981082;28;20129;-69
2022/04/23 07:08:43;;;;;;;25.52;12.68;;;;;;;;;;4981671;28;20057;-69
2022/04/23 07:11:09;;;;;;;22.73;13.57;;;;;;;;;;4963992;28;20033;-69
2022/04/23 07:13:35;;;;;;;22.95;13.45;;;;;;;;;;4982469;28;20094;-70
2022/04/23 07:16:03;;;;;;;23.85;12.90;;;;;;;;;;4963778;28;20050;-70
2022/04/23 07:18:30;;;;;;;18.02;10.95;;;;;;;;;;4983329;28;20038;-70
2022/04/23 07:20:55;;;;;;;26.70;13.18;;;;;;;;;;4982866;28;20034;-70
2022/04/23 07:26:08;;;;;;;18.65;10.82;;;;;;;;;;4981653;28;20043;-70
2022/04/23 07:28:34;;;;;;;24.40;14.93;;;;;;;;;;4977858;28;20076;-70
2022/04/23 07:31:00;;;;;;;30.98;16.13;;;;;;;;;;4980988;28;20430;-70
2022/04/23 07:38:54;;;;;;;21.98;12.80;;;;;;;;;;4981026;28;20736;-70
2022/04/23 07:41:20;;;;;;;21.95;14.63;;;;;;;;;;4983696;28;20125;-70
2022/04/23 07:43:46;;;;;;;21.63;14.40;;;;;;;;;;4983449;28;20034;-70
2022/04/23 07:46:12;;;;;;;24.77;13.85;;;;;;;;;;4982541;28;20080;-70
2022/04/23 07:48:37;;;;;;;18.10;10.77;;;;;;;;;;4982057;28;20161;-70
2022/04/23 07:51:03;;;;;;;25.70;13.55;;;;;;;;;;4983225;28;20049;-69
2022/04/23 07:53:28;;;;;;;23.25;14.48;;;;;;;;;;4984101;28;20118;-70
2022/04/23 07:55:54;;;;;;;20.17;12.45;;;;;;;;;;4983002;28;20034;-70
2022/04/23 07:58:19;;;;;;;20.90;13.27;;;;;;;;;;4983076;28;20029;-70
2022/04/23 08:00:45;;;;;;;18.48;12.05;;;;;;;;;;4982443;28;20101;-70
2022/04/23 08:03:10;;;;;;;19.42;11.82;;;;;;;;;;4984365;28;20502;-70
2022/04/23 08:05:36;;;;;;;18.60;12.27;;;;;;;;;;4984125;28;20402;-70
2022/04/23 08:08:02;;;;;;;20.40;12.85;;;;;;;;;;4983118;28;20030;-70
2022/04/23 08:10:27;;;;;;;14.75;10.23;;;;;;;;;;4981443;28;20034;-70
2022/04/23 08:12:56;;;;;;;18.73;11.73;;;;;;;;;;4982800;28;20049;-70
2022/04/23 08:15:22;;;;;;;17.75;11.25;;;;;;;;;;4981930;28;20094;-71
2022/04/23 08:17:48;;;;;;;19.05;12.10;;;;;;;;;;4982250;28;20038;-71
2022/04/23 08:20:14;;;;;;;17.60;11.48;;;;;;;;;;4982037;28;20046;-71
2022/04/23 08:22:39;;;;;;;15.95;10.57;;;;;;;;;;4981331;28;20030;-71
2022/04/23 08:25:06;;;;;;;19.17;11.32;;;;;;;;;;4981758;28;20042;-71
2022/04/23 08:27:48;;;;;;;17.38;10.90;;;;;;;;;;4982032;28;20053;-71
2022/04/23 08:32:58;;;;;;;16.58;10.95;;;;;;;;;;4980715;28;20045;-70
2022/04/23 08:35:23;;;;;;;16.52;10.40;;;;;;;;;;4981248;28;20410;-70
2022/04/23 08:37:50;;;;;;;13.93;9.45;;;;;;;;;;4964435;28;20036;-71
2022/04/23 08:40:16;;;;;;;14.40;10.77;;;;;;;;;;4964532;28;20060;-69
2022/04/23 08:42:41;;;;;;;14.35;11.20;;;;;;;;;;4982342;28;20034;-71
2022/04/23 08:45:07;;;;;;;13.68;9.43;;;;;;;;;;4963469;28;20546;-70
2022/04/23 08:47:36;;;;;;;12.45;9.35;;;;;;;;;;4981666;28;20133;-70
2022/04/23 08:50:04;;;;;;;15.85;9.48;;;;;;;;;;4980092;28;20056;-70
2022/04/23 08:52:34;;;;;;;11.23;7.65;;;;;;;;;;4979589;28;20050;-70
2022/04/23 08:55:01;;;;;;;13.70;9.00;;;;;;;;;;4979239;28;20129;-70
2022/04/23 08:57:28;;;;;;;12.60;8.73;;;;;;;;;;4979959;28;20038;-70
2022/04/23 08:59:56;;;;;;;14.55;8.88;;;;;;;;;;4980950;28;20120;-69
2022/04/23 09:02:23;;;;;;;13.13;9.18;;;;;;;;;;4981065;28;20113;-70
2022/04/23 09:04:48;;;;;;;10.75;7.90;;;;;;;;;;4981472;28;20042;-69
2022/04/23 09:07:27;;;;;;;12.73;8.43;;;;;;;;;;4981476;28;20127;-70
2022/04/23 09:09:54;;;;;;;13.00;8.30;;;;;;;;;;4982101;28;20045;-70
2022/04/23 09:12:24;;;;;;;11.95;8.07;;;;;;;;;;4963165;28;20117;-70
2022/04/23 09:15:04;;;;;;;12.43;7.80;;;;;;;;;;4980832;28;20491;-70
2022/04/23 09:25:44;;;;;;;8.77;6.70;;;;;;;;;;4980891;28;20498;-70
2022/04/23 09:28:22;;;;;;;8.77;7.30;;;;;;;;;;4982533;28;20553;-70
2022/04/23 09:30:54;;;;;;;11.88;8.23;;;;;;;;;;4981754;28;20542;-70
2022/04/23 09:33:27;;;;;;;14.20;9.50;;;;;;;;;;4981953;28;20089;-70
2022/04/23 09:36:03;;;;;;;14.48;9.52;;;;;;;;;;4964884;28;20034;-70
2022/04/23 09:38:30;;;;;;;8.73;6.97;;;;;;;;;;4977350;28;20038;-69
2022/04/23 09:40:58;;;;;;;9.60;7.50;;;;;;;;;;4980002;28;20042;-70
2022/04/23 09:43:28;;;;;;;7.10;5.97;;;;;;;;;;4981566;28;20048;-70
2022/04/23 09:46:09;;;;;;;11.35;6.85;;;;;;;;;;4979183;28;20069;-70
2022/04/23 09:48:39;;;;;;;9.23;7.07;;;;;;;;;;4981242;28;20042;-70
2022/04/23 09:51:18;;;;;;;10.77;7.55;;;;;;;;;;4980539;28;20395;-70
2022/04/23 09:53:46;;;;;;;8.65;7.03;;;;;;;;;;4963043;28;20042;-70
2022/04/23 09:56:13;;;;;;;10.07;7.13;;;;;;;;;;4979942;28;20042;-70
2022/04/23 09:58:39;;;;;;;9.70;7.32;;;;;;;;;;4980287;28;20034;-70
2022/04/23 10:01:07;;;;;;;8.98;6.65;;;;;;;;;;4978513;28;20097;-70
2022/04/23 10:03:33;;;;;;;9.40;7.00;;;;;;;;;;4981340;28;20042;-70
2022/04/23 10:06:00;;;;;;;13.43;7.88;;;;;;;;;;4980202;28;20110;-71
2022/04/23 10:08:29;;;;;;;10.05;6.75;;;;;;;;;;4962092;28;20534;-70
2022/04/23 10:11:01;;;;;;;7.13;5.65;;;;;;;;;;4980803;28;20806;-70
2022/04/23 10:13:29;;;;;;;10.10;6.87;;;;;;;;;;4980820;28;20042;-70
2022/04/23 10:15:57;;;;;;;11.57;8.57;;;;;;;;;;4979490;28;20042;-70
2022/04/23 10:18:23;;;;;;;10.80;7.93;;;;;;;;;;4979737;28;20041;-70
2022/04/23 10:21:02;;;;;;;12.25;7.47;;;;;;;;;;4980486;28;20038;-71
2022/04/23 10:23:58;;;;;;;13.15;8.93;;;;;;;;;;4980754;28;20031;-70
2022/04/23 10:26:42;;;;;;;19.38;8.45;;;;;;;;;;4980842;28;20034;-70
2022/04/23 10:29:16;;;;;;;11.43;7.10;;;;;;;;;;4979862;28;20038;-71
2022/04/23 10:31:42;;;;;;;12.05;7.85;;;;;;;;;;4980594;28;20070;-69
2022/04/23 10:34:34;;;;;;;13.00;8.32;;;;;;;;;;4966338;28;20045;-69
2022/04/23 10:37:24;;;;;;;11.50;8.10;;;;;;;;;;4983637;28;20705;-69
2022/04/23 10:39:52;;;;;;;11.77;8.25;;;;;;;;;;4983747;28;20038;-72
2022/04/23 10:42:23;;;;;;;18.40;9.50;;;;;;;;;;4984732;28;20038;-69
2022/04/23 10:44:50;;;;;;;13.02;8.90;;;;;;;;;;4983245;28;20034;-70
2022/04/23 10:47:36;;;;;;;16.48;9.30;;;;;;;;;;4984052;28;20126;-71
2022/04/23 10:50:19;;;;;;;25.33;10.10;;;;;;;;;;4984355;28;20058;-71
2022/04/23 10:52:46;;;;;;;20.67;10.93;;;;;;;;;;4984203;28;20050;-71
2022/04/23 10:55:14;;;;;;;13.88;8.65;;;;;;;;;;4984101;28;20049;-71
2022/04/23 10:57:47;;;;;;;16.27;9.80;;;;;;;;;;4983633;28;20104;-68
2022/04/23 11:00:18;;;;;;;16.58;9.85;;;;;;;;;;4982794;28;20069;-71
2022/04/23 11:02:56;;;;;;;14.52;8.88;;;;;;;;;;4982808;28;20043;-70
2022/04/23 11:14:37;;;;;;;19.58;12.90;;;;;;;;;;4981734;28;20065;-69
2022/04/23 11:17:02;;;;;;;17.73;11.43;;;;;;;;;;4982292;28;20462;-69
2022/04/23 11:19:29;;;;;;;18.73;12.32;;;;;;;;;;4983539;28;20042;-70
2022/04/23 11:21:55;;;;;;;21.80;13.38;;;;;;;;;;4982633;28;20037;-69
2022/04/23 11:24:22;;;;;;;26.35;13.25;;;;;;;;;;4981928;28;20097;-68
2022/04/23 11:26:49;;;;;;;17.83;13.25;;;;;;;;;;4983412;28;20746;-69
2022/04/23 11:29:15;;;;;;;20.63;13.73;;;;;;;;;;4981182;28;20038;-67
2022/04/23 11:31:50;;;;;;;19.05;12.05;;;;;;;;;;4982952;28;20126;-70
2022/04/23 11:34:15;;;;;;;24.58;14.95;;;;;;;;;;4981709;28;20034;-70
2022/04/23 11:36:40;;;;;;;17.45;11.73;;;;;;;;;;4982328;28;20656;-70
2022/04/23 11:39:10;;;;;;;21.52;14.05;;;;;;;;;;4982739;28;20594;-70
2022/04/23 11:41:49;;;;;;;23.08;14.75;;;;;;;;;;4980943;28;20073;-69
2022/04/23 11:47:03;;;;;;;22.20;13.15;;;;;;;;;;4981553;28;20030;-70
2022/04/23 11:49:30;;;;;;;27.75;17.20;;;;;;;;;;4982800;28;20046;-71
2022/04/23 11:52:04;;;;;;;30.27;14.70;;;;;;;;;;4981828;28;20040;-71
2022/04/23 11:54:33;;;;;;;23.70;14.77;;;;;;;;;;4983323;28;20546;-71
2022/04/23 11:56:59;;;;;;;23.45;15.57;;;;;;;;;;4982003;28;20486;-71
2022/04/23 11:59:33;;;;;;;20.75;13.25;;;;;;;;;;4982305;28;20049;-70
2022/04/23 12:01:59;;;;;;;25.20;16.83;;;;;;;;;;4983368;28;20034;-71
2022/04/23 12:04:24;;;;;;;24.25;16.00;;;;;;;;;;4982262;28;20392;-72
2022/04/23 12:06:50;;;;;;;24.15;13.45;;;;;;;;;;4982903;28;20137;-71
2022/04/23 12:09:15;;;;;;;19.55;13.43;;;;;;;;;;4980941;28;20027;-70
2022/04/23 12:11:41;;;;;;;26.17;17.52;;;;;;;;;;4981872;28;20048;-71
2022/04/23 12:14:06;;;;;;;21.35;15.35;;;;;;;;;;4982603;28;20050;-71
2022/04/23 12:16:41;;;;;;;28.73;16.90;;;;;;;;;;4980779;28;20157;-71
2022/04/23 12:19:12;;;;;;;25.98;15.10;;;;;;;;;;4981121;28;20042;-71
2022/04/23 12:21:38;;;;;;;22.10;15.20;;;;;;;;;;4981326;28;21205;-71
2022/04/23 12:24:05;;;;;;;21.02;14.70;;;;;;;;;;4980281;28;20289;-71
2022/04/23 12:26:33;;;;;;;23.42;14.93;;;;;;;;;;4980431;28;20038;-71
2022/04/23 12:42:27;;;;;;;23.35;13.45;;;;;;;;;;4981946;28;20049;-71
2022/04/23 12:44:53;;;;;;;22.05;14.80;;;;;;;;;;4982195;28;20042;-71
2022/04/23 12:47:34;;;;;;;24.35;14.15;;;;;;;;;;4981674;28;20466;-71
2022/04/23 12:50:02;;;;;;;24.67;16.33;;;;;;;;;;4982256;28;20038;-71
2022/04/23 12:52:34;;;;;;;23.80;15.35;;;;;;;;;;4980982;28;20042;-71
2022/04/23 12:55:14;;;;;;;;;;;;;;;;;;4981671;28;20042;-71
2022/04/23 12:57:47;;;;;;;21.90;14.68;;;;;;;;;;4982121;28;19928;-71
2022/04/23 13:00:16;;;;;;;20.15;13.88;;;;;;;;;;4981179;28;20052;-71
2022/04/23 13:02:45;;;;;;;22.15;15.40;;;;;;;;;;4980081;28;20041;-71
2022/04/23 13:05:11;;;;;;;19.27;14.38;;;;;;;;;;4981617;28;20072;-70
2022/04/23 13:10:22;;;;;;;18.42;12.18;;;;;;;;;;4953624;28;20164;-71
2022/04/23 13:12:48;;;;;;;22.00;13.27;;;;;;;;;;4984933;28;20045;-71
2022/04/23 13:15:15;;;;;;;20.92;12.73;;;;;;;;;;4982999;28;20026;-71
2022/04/23 13:17:41;;;;;;;21.73;13.55;;;;;;;;;;4983433;28;20053;-71
2022/04/23 13:20:11;;;;;;;16.50;10.90;;;;;;;;;;4983186;28;20034;-71
2022/04/23 13:22:37;;;;;;;20.35;13.95;;;;;;;;;;4983320;28;20031;-71
2022/04/23 13:25:04;;;;;;;19.60;13.27;;;;;;;;;;4981298;28;20057;-70
2022/04/23 13:27:30;;;;;;;23.38;13.98;;;;;;;;;;4981131;28;20042;-71
2022/04/23 13:29:56;;;;;;;30.63;14.60;;;;;;;;;;4977505;28;20038;-71
2022/04/23 13:32:22;;;;;;;21.63;14.80;;;;;;;;;;4981473;28;20990;-71
2022/04/23 13:34:47;;;;;;;21.30;14.13;;;;;;;;;;4980671;28;20030;-71
2022/04/23 13:37:13;;;;;;;26.88;14.68;;;;;;;;;;4980253;28;20046;-71
2022/04/23 13:39:39;;;;;;;21.50;13.65;;;;;;;;;;4982008;28;20042;-71
2022/04/23 13:42:05;;;;;;;21.17;14.55;;;;;;;;;;4980909;28;20085;-71
2022/04/23 13:44:30;;;;;;;18.35;13.27;;;;;;;;;;4980454;28;20049;-71
2022/04/23 13:46:56;;;;;;;16.50;13.40;;;;;;;;;;4979833;28;20113;-71
2022/04/23 13:49:25;;;;;;;17.83;12.30;;;;;;;;;;4981381;28;20096;-71
2022/04/23 13:51:51;;;;;;;18.67;12.82;;;;;;;;;;4980734;28;20057;-71
2022/04/23 13:54:16;;;;;;;21.67;12.77;;;;;;;;;;4963007;28;20046;-71
2022/04/23 13:56:42;;;;;;;18.42;12.27;;;;;;;;;;4979884;28;20126;-71
2022/04/23 13:59:11;;;;;;;17.80;12.70;;;;;;;;;;4979734;28;21065;-71
2022/04/23 14:01:39;;;;;;;17.48;11.57;;;;;;;;;;4980346;28;20092;-71
2022/04/23 14:13:21;;;;;;;15.00;12.50;;;;;;;;;;4984700;28;20096;-71
2022/04/23 14:15:47;;;;;;;20.42;13.45;;;;;;;;;;4983028;28;20148;-71
2022/04/23 14:18:13;;;;;;;18.05;13.13;;;;;;;;;;4984291;28;20176;-71
2022/04/23 14:20:38;;;;;;;19.25;13.07;;;;;;;;;;4983177;28;20081;-71
2022/04/23 14:23:04;;;;;;;15.40;10.90;;;;;;;;;;4984031;28;20487;-71
2022/04/23 14:25:29;;;;;;;15.20;10.98;;;;;;;;;;4983780;28;21017;-71
2022/04/23 14:27:55;;;;;;;15.88;11.60;;;;;;;;;;4983897;28;20056;-71
2022/04/23 14:30:20;;;;;;;21.70;11.93;;;;;;;;;;4983161;28;20084;-71
2022/04/23 14:32:46;;;;;;;18.15;12.75;;;;;;;;;;4983786;28;20391;-71
2022/04/23 14:35:11;;;;;;;18.05;13.05;;;;;;;;;;4983102;28;20041;-71
2022/04/23 14:37:37;;;;;;;18.58;13.05;;;;;;;;;;4984247;28;20750;-71
2022/04/23 14:40:03;;;;;;;21.52;13.93;;;;;;;;;;4983803;28;20030;-71
2022/04/23 14:42:29;;;;;;;18.45;14.32;;;;;;;;;;4982966;28;20038;-71
2022/04/23 14:44:55;;;;;;;18.52;12.43;;;;;;;;;;4982791;28;20044;-71
2022/04/23 14:47:21;;;;;;;19.58;14.18;;;;;;;;;;4983795;28;20054;-71
2022/04/23 14:49:46;;;;;;;23.85;12.95;;;;;;;;;;4983798;28;20069;-71
2022/04/23 14:54:56;;;;;;;21.70;15.02;;;;;;;;;;4982472;28;20046;-71
2022/04/23 14:57:22;;;;;;;21.65;14.68;;;;;;;;;;4983256;28;20122;-71
2022/04/23 14:59:47;;;;;;;19.20;12.73;;;;;;;;;;4983374;28;20041;-71
2022/04/23 15:02:13;;;;;;;18.05;12.82;;;;;;;;;;4983201;28;20093;-71
2022/04/23 15:04:38;;;;;;;20.65;13.82;;;;;;;;;;4982439;28;20092;-71
2022/04/23 15:07:04;;;;;;;22.25;16.45;;;;;;;;;;4982851;28;20042;-71
2022/04/23 15:09:29;;;;;;;20.75;15.57;;;;;;;;;;4983562;28;20046;-71
2022/04/23 15:11:55;;;;;;;18.90;13.55;;;;;;;;;;4965122;28;20141;-71
2022/04/23 15:14:20;;;;;;;16.65;12.55;;;;;;;;;;4965324;28;20606;-71
2022/04/23 15:16:46;;;;;;;18.92;14.00;;;;;;;;;;4982212;28;20551;-72
2022/04/23 15:19:12;;;;;;;17.90;12.88;;;;;;;;;;4982439;28;20035;-71